^^
B2 Weather Station Historical Data
Daily Summary for December 17, 2018 Units:  English    Metric   Both
Daily Weekly Monthly Yearly Custom
  High: Low: Average:
Temperature: 41 °F 27.4 °F 34.4 °F
Dew Point: 31.9 °F 23.8 °F 28.3 °F
Humidity: 89% 62% 79%
Wind Speed: 13.8mph 0mph 5.4mph
Wind Gust: 8.8mph - -
Wind- - NW
Pressure: 30.27 in 30.13 in -
Precipitation: 0 in    
Historical Graphs
 
 
Tabular Data for December 17, 2018
Time Temperature Dew Point Pressure Wind Wind Speed Wind Gust Humidity Rainfall Rate (Hourly) solar
00:04 34.4 °F 31.5 °F 30.14 in WSW 6.9 mph 3.2 mph 89% 0 in 0.00 W/m2
00:09 34.5 °F 31.6 °F 30.14 in West 8.1 mph 3.7 mph 89% 0 in 0.00 W/m2
00:14 34.6 °F 31.7 °F 30.14 in West 9.2 mph 4.6 mph 89% 0 in 0.00 W/m2
00:19 34.8 °F 31.9 °F 30.14 in WSW 9.2 mph 5.5 mph 89% 0 in 0.00 W/m2
00:24 34.8 °F 31.6 °F 30.14 in SW 11.5 mph 4.5 mph 88% 0 in 0.00 W/m2
00:29 34.8 °F 31.6 °F 30.14 in North 10.4 mph 6 mph 88% 0 in 0.00 W/m2
00:34 34.8 °F 31.6 °F 30.14 in West 10.4 mph 5.9 mph 88% 0 in 0.00 W/m2
00:39 34.7 °F 31.5 °F 30.13 in North 11.5 mph 4.3 mph 88% 0 in 0.00 W/m2
00:44 34.7 °F 31.5 °F 30.13 in West 9.2 mph 6.9 mph 88% 0 in 0.00 W/m2
00:49 34.8 °F 31.6 °F 30.13 in North 8.1 mph 5.3 mph 88% 0 in 0.00 W/m2
00:54 34.8 °F 31.6 °F 30.13 in WNW 6.9 mph 4.2 mph 88% 0 in 0.00 W/m2
00:59 34.8 °F 31.6 °F 30.13 in WSW 11 mph 5.3 mph 88% 0 in 0.00 W/m2
01:04 34.8 °F 31.6 °F 30.13 in North 5.8 mph 5 mph 88% 0 in 0.00 W/m2
01:09 34.9 °F 31.4 °F 30.13 in North 10.4 mph 4.9 mph 87% 0 in 0.00 W/m2
01:14 34.9 °F 31.4 °F 30.13 in North 10.4 mph 4.6 mph 87% 0 in 0.00 W/m2
01:19 34.9 °F 31.4 °F 30.14 in North 10.4 mph 4.4 mph 87% 0 in 0.00 W/m2
01:24 34.9 °F 31.4 °F 30.14 in West 9.2 mph 5.7 mph 87% 0 in 0.00 W/m2
01:29 34.9 °F 31.4 °F 30.13 in North 9.2 mph 3.2 mph 87% 0 in 0.00 W/m2
01:34 34.8 °F 31.3 °F 30.14 in North 7 mph 4 mph 87% 0 in 0.00 W/m2
01:39 34.8 °F 31.3 °F 30.13 in North 9 mph 3.7 mph 87% 0 in 0.00 W/m2
01:44 34.8 °F 31.3 °F 30.14 in WSW 8.1 mph 6.7 mph 87% 0 in 0.00 W/m2
01:49 34.7 °F 30.9 °F 30.14 in West 7 mph 6.3 mph 86% 0 in 0.00 W/m2
01:54 34.5 °F 30.7 °F 30.14 in WSW 11.5 mph 7.2 mph 86% 0 in 0.00 W/m2
01:59 34.4 °F 30.6 °F 30.14 in North 11.5 mph 4.5 mph 86% 0 in 0.00 W/m2
02:04 34.3 °F 30.5 °F 30.14 in North 10.4 mph 6.7 mph 86% 0 in 0.00 W/m2
02:09 34.2 °F 30.4 °F 30.14 in WNW 11.5 mph 5 mph 86% 0 in 0.00 W/m2
02:14 34.2 °F 30.4 °F 30.14 in North 10.4 mph 4.9 mph 86% 0 in 0.00 W/m2
02:19 34.1 °F 30.4 °F 30.14 in West 5.8 mph 3.6 mph 86% 0 in 0.00 W/m2
02:24 34 °F 30.3 °F 30.14 in NW 9.2 mph 5.5 mph 86% 0 in 0.00 W/m2
02:29 34 °F 30.3 °F 30.14 in North 10.4 mph 5.9 mph 86% 0 in 0.00 W/m2
02:34 33.9 °F 30.2 °F 30.14 in WSW 10.4 mph 5 mph 86% 0 in 0.00 W/m2
02:40 33.9 °F 30.2 °F 30.15 in West 9.2 mph 5.6 mph 86% 0 in 0.00 W/m2
02:44 33.9 °F 30.2 °F 30.15 in WNW 10.4 mph 4.9 mph 86% 0 in 0.00 W/m2
02:49 33.9 °F 30.2 °F 30.15 in NW 10.4 mph 5.5 mph 86% 0 in 0.00 W/m2
02:54 33.9 °F 30.2 °F 30.15 in West 13.8 mph 5.1 mph 86% 0 in 0.00 W/m2
02:59 33.8 °F 30.1 °F 30.15 in NW 12.7 mph 5.8 mph 86% 0 in 0.00 W/m2
03:04 33.8 °F 30.1 °F 30.15 in WNW 10.4 mph 4.6 mph 86% 0 in 0.00 W/m2
03:09 33.7 °F 30 °F 30.15 in North 10.4 mph 4.7 mph 86% 0 in 0.00 W/m2
03:14 33.6 °F 29.9 °F 30.15 in NW 8.1 mph 4.8 mph 86% 0 in 0.00 W/m2
03:19 33.6 °F 29.9 °F 30.15 in WNW 11.5 mph 4.2 mph 86% 0 in 0.00 W/m2
03:24 33.6 °F 29.9 °F 30.15 in North 11.5 mph 4.3 mph 86% 0 in 0.00 W/m2
03:29 33.5 °F 29.8 °F 30.14 in WNW 6.9 mph 5.5 mph 86% 0 in 0.00 W/m2
03:34 33.5 °F 29.5 °F 30.15 in WNW 11.5 mph 5.2 mph 85% 0 in 0.00 W/m2
03:39 33.5 °F 29.5 °F 30.15 in North 9.2 mph 4.3 mph 85% 0 in 0.00 W/m2
03:44 33.4 °F 29.4 °F 30.15 in West 8.1 mph 4 mph 85% 0 in 0.00 W/m2
03:49 33.3 °F 29.3 °F 30.15 in West 6.9 mph 4.7 mph 85% 0 in 0.00 W/m2
03:54 33.2 °F 29.2 °F 30.15 in North 11.5 mph 6.1 mph 85% 0 in 0.00 W/m2
03:59 33 °F 29 °F 30.15 in WNW 10.4 mph 4.1 mph 85% 0 in 0.00 W/m2
04:04 33 °F 29 °F 30.16 in North 11.5 mph 5.6 mph 85% 0 in 0.00 W/m2
04:09 32.9 °F 28.9 °F 30.16 in North 13.8 mph 6.6 mph 85% 0 in 0.00 W/m2
04:14 32.9 °F 28.9 °F 30.15 in West 10.4 mph 6.2 mph 85% 0 in 0.00 W/m2
04:19 32.9 °F 28.9 °F 30.15 in West 11.5 mph 3.9 mph 85% 0 in 0.00 W/m2
04:24 32.8 °F 28.8 °F 30.16 in WNW 9.2 mph 4.9 mph 85% 0 in 0.00 W/m2
04:29 32.7 °F 28.7 °F 30.15 in WNW 9.2 mph 5 mph 85% 0 in 0.00 W/m2
04:34 32.7 °F 28.7 °F 30.16 in North 9 mph 4.9 mph 85% 0 in 0.00 W/m2
04:39 32.6 °F 28.6 °F 30.16 in WNW 9.2 mph 4.1 mph 85% 0 in 0.00 W/m2
04:44 32.6 °F 28.6 °F 30.16 in WNW 8.1 mph 4.3 mph 85% 0 in 0.00 W/m2
04:49 32.6 °F 28.6 °F 30.16 in North 8.1 mph 4.6 mph 85% 0 in 0.00 W/m2
04:54 32.7 °F 28.7 °F 30.16 in West 10.4 mph 3.4 mph 85% 0 in 0.00 W/m2
04:59 32.7 °F 28.7 °F 30.16 in WNW 8.1 mph 3 mph 85% 0 in 0.00 W/m2
05:04 32.8 °F 28.8 °F 30.16 in WSW 8.1 mph 5 mph 85% 0 in 0.00 W/m2
05:09 32.8 °F 28.8 °F 30.16 in West 4 mph 4 mph 85% 0 in 0.00 W/m2
05:14 32.6 °F 28.3 °F 30.16 in WNW 5.8 mph 1.9 mph 84% 0 in 0.00 W/m2
05:19 32.5 °F 28.2 °F 30.16 in West 8.1 mph 3.8 mph 84% 0 in 0.00 W/m2
05:24 32.4 °F 28.1 °F 30.16 in WSW 4 mph 2.2 mph 84% 0 in 0.00 W/m2
05:29 32.1 °F 28.1 °F 30.16 in WNW 4.6 mph 2.8 mph 85% 0 in 0.00 W/m2
05:34 32 °F 28 °F 30.16 in West 5.8 mph 2.5 mph 85% 0 in 0.00 W/m2
05:39 31.9 °F 27.9 °F 30.16 in North 4.6 mph 3.3 mph 85% 0 in 0.00 W/m2
05:44 31.9 °F 27.9 °F 30.16 in WNW 6.9 mph 2.7 mph 85% 0 in 0.00 W/m2
05:49 31.7 °F 27.7 °F 30.17 in NW 8.1 mph 3.1 mph 85% 0 in 0.00 W/m2
05:55 31.6 °F 27.6 °F 30.17 in WNW 6.9 mph 3.4 mph 85% 0 in 0.00 W/m2
05:59 31.6 °F 27.6 °F 30.17 in WNW 5.8 mph 1.1 mph 85% 0 in 0.00 W/m2
06:04 31.5 °F 27.5 °F 30.18 in West 6 mph 3.1 mph 85% 0 in 0.00 W/m2
06:09 31.5 °F 27.5 °F 30.18 in NW 9.2 mph 2.9 mph 85% 0 in 0.00 W/m2
06:14 31.4 °F 27.4 °F 30.18 in WNW 10.4 mph 3.5 mph 85% 0 in 0.00 W/m2
06:19 31.2 °F 27.2 °F 30.18 in West 9.2 mph 1.9 mph 85% 0 in 0.00 W/m2
06:24 31 °F 27 °F 30.18 in NW 6.9 mph 2.6 mph 85% 0 in 0.00 W/m2
06:29 30.9 °F 27.2 °F 30.18 in NNW 3.5 mph 3.2 mph 86% 0 in 0.00 W/m2
06:34 30.9 °F 27.2 °F 30.19 in NW 6.9 mph 3.6 mph 86% 0 in 0.00 W/m2
06:39 30.9 °F 27.2 °F 30.19 in NW 4.6 mph 3.5 mph 86% 0 in 0.00 W/m2
06:44 31 °F 27.3 °F 30.19 in West 3.5 mph   86% 0 in 0.00 W/m2
06:49 31 °F 27.3 °F 30.19 in NW 4.6 mph 3.8 mph 86% 0 in 0.00 W/m2
06:54 31 °F 27.3 °F 30.19 in West 3.5 mph 4.1 mph 86% 0 in 0.00 W/m2
06:59 31 °F 27.3 °F 30.19 in WNW 6.9 mph 5.1 mph 86% 0 in 0.00 W/m2
07:04 31.1 °F 27.4 °F 30.19 in WNW 11.5 mph 2.5 mph 86% 0 in 0.00 W/m2
07:09 31.1 °F 27.4 °F 30.19 in WNW 6.9 mph 4.3 mph 86% 0 in 5.00 W/m2
07:14 31.1 °F 27.4 °F 30.19 in West 8.1 mph 3.9 mph 86% 0 in 5.00 W/m2
07:19 31.1 °F 27.4 °F 30.20 in NW 5 mph 2.6 mph 86% 0 in 9.00 W/m2
07:24 31.2 °F 27.5 °F 30.20 in NW 5 mph 3.5 mph 86% 0 in 12.00 W/m2
07:29 31.2 °F 27.5 °F 30.20 in WNW 11.5 mph 3.6 mph 86% 0 in 14.00 W/m2
07:34 31.3 °F 27.3 °F 30.20 in WNW 8.1 mph 3.7 mph 85% 0 in 19.00 W/m2
07:39 31.5 °F 27.5 °F 30.20 in WNW 8.1 mph 2.8 mph 85% 0 in 28.00 W/m2
07:44 31.6 °F 27.6 °F 30.21 in North 6 mph 5 mph 85% 0 in 40.00 W/m2
07:49 31.7 °F 27.7 °F 30.20 in WNW 6.9 mph 6.4 mph 85% 0 in 33.00 W/m2
07:54 31.7 °F 27.7 °F 30.21 in NW 9.2 mph 5.4 mph 85% 0 in 67.00 W/m2
07:59 31.9 °F 27.9 °F 30.21 in NW 4.6 mph 2.5 mph 85% 0 in 72.00 W/m2
08:04 32.1 °F 28.1 °F 30.20 in WNW 3.5 mph 3.8 mph 85% 0 in 93.00 W/m2
08:09 32.4 °F 28.1 °F 30.20 in North 6.9 mph 5.3 mph 84% 0 in 88.00 W/m2
08:14 32.5 °F 28.2 °F 30.21 in NW 9.2 mph 3.9 mph 84% 0 in 118.00 W/m2
08:19 32.8 °F 28.2 °F 30.21 in NW 6 mph 5.9 mph 83% 0 in 128.00 W/m2
08:24 32.9 °F 28.3 °F 30.21 in WNW 8.1 mph 6.5 mph 83% 0 in 144.00 W/m2
08:29 33 °F 28.1 °F 30.21 in NW 9.2 mph 5.6 mph 82% 0 in 144.00 W/m2
08:34 33.2 °F 28.3 °F 30.21 in WNW 8 mph 5 mph 82% 0 in 153.00 W/m2
08:39 33.3 °F 28.4 °F 30.22 in NW 9.2 mph 3.8 mph 82% 0 in 174.00 W/m2
08:44 33.5 °F 28.3 °F 30.22 in NW 10.4 mph 6 mph 81% 0 in 200.00 W/m2
08:49 33.7 °F 28.5 °F 30.22 in WNW 5.8 mph 3.8 mph 81% 0 in 221.00 W/m2
08:54 33.8 °F 28.3 °F 30.22 in NNW 10.4 mph 6 mph 80% 0 in 239.00 W/m2
08:59 33.9 °F 28.4 °F 30.22 in NW 8.1 mph 3.5 mph 80% 0 in 225.00 W/m2
09:04 34.2 °F 28.7 °F 30.22 in West 10 mph 4.9 mph 80% 0 in 236.00 W/m2
09:09 34.2 °F 28.4 °F 30.22 in North 9.2 mph 3.5 mph 79% 0 in 237.00 W/m2
09:14 34.3 °F 28.5 °F 30.23 in NW 6.9 mph 3.6 mph 79% 0 in 274.00 W/m2
09:19 34.4 °F 28.2 °F 30.23 in North 11.5 mph 6 mph 78% 0 in 285.00 W/m2
09:25 34.5 °F 28.7 °F 30.23 in North 8.1 mph 4.9 mph 79% 0 in 295.00 W/m2
09:29 34.8 °F 29 °F 30.23 in NW 6.9 mph 6.2 mph 79% 0 in 304.00 W/m2
09:34 34.8 °F 28.6 °F 30.23 in NW 6.9 mph 5.1 mph 78% 0 in 313.00 W/m2
09:39 34.9 °F 28.7 °F 30.23 in North 9.2 mph 4.2 mph 78% 0 in 322.00 W/m2
09:44 35 °F 29.1 °F 30.23 in North 6.9 mph 4.7 mph 79% 0 in 330.00 W/m2
09:49 35.1 °F 28.9 °F 30.24 in NNW 8.1 mph 4.3 mph 78% 0 in 339.00 W/m2
09:54 35.2 °F 28.7 °F 30.23 in NNW 9.2 mph 5.7 mph 77% 0 in 346.00 W/m2
09:59 35.4 °F 28.6 °F 30.23 in WNW 10.4 mph 5.4 mph 76% 0 in 355.00 W/m2
10:04 35.4 °F 28.3 °F 30.23 in NNW 11.5 mph 5.2 mph 75% 0 in 362.00 W/m2
10:09 35.5 °F 28.7 °F 30.24 in NNW 8.1 mph 5.6 mph 76% 0 in 369.00 W/m2
10:14 35.7 °F 28.6 °F 30.24 in North 8.1 mph 6.5 mph 75% 0 in 376.00 W/m2
10:19 35.9 °F 28.7 °F 30.24 in NNW 6 mph 4.7 mph 75% 0 in 383.00 W/m2
10:24 36.1 °F 29.3 °F 30.24 in NW 9.2 mph 5.5 mph 76% 0 in 388.00 W/m2
10:29 36.1 °F 28.9 °F 30.23 in North 9.2 mph 5.3 mph 75% 0 in 396.00 W/m2
10:34 36.2 °F 29 °F 30.24 in NNW 11.5 mph 5.6 mph 75% 0 in 401.00 W/m2
10:39 36.4 °F 29.6 °F 30.24 in North 8.1 mph 6.7 mph 76% 0 in 406.00 W/m2
10:44 36.5 °F 29 °F 30.23 in NNW 9.2 mph 6.3 mph 74% 0 in 411.00 W/m2
10:49 36.5 °F 28.7 °F 30.23 in NNW 10.4 mph 7.7 mph 73% 0 in 417.00 W/m2
10:54 36.6 °F 28.8 °F 30.23 in NNW 8.1 mph 5.1 mph 73% 0 in 420.00 W/m2
10:59 36.9 °F 28.7 °F 30.23 in NNW 11 mph 8.8 mph 72% 0 in 425.00 W/m2
11:05 37 °F 29.1 °F 30.23 in North 8.1 mph 5.9 mph 73% 0 in 429.00 W/m2
11:09 37.3 °F 29.8 °F 30.23 in North 8 mph 6.5 mph 74% 0 in 431.00 W/m2
11:14 37.6 °F 29.4 °F 30.23 in NNE 8.1 mph 5 mph 72% 0 in 434.00 W/m2
11:19 37.6 °F 29 °F 30.23 in North 8.1 mph 5 mph 71% 0 in 438.00 W/m2
11:24 37.7 °F 29.1 °F 30.23 in NNW 9 mph 6 mph 71% 0 in 439.00 W/m2
11:29 37.8 °F 28.9 °F 30.23 in NNW 8.1 mph 7.2 mph 70% 0 in 443.00 W/m2
11:34 37.9 °F 29.3 °F 30.23 in North 8.1 mph 6.2 mph 71% 0 in 448.00 W/m2
11:39 37.8 °F 28.2 °F 30.22 in NNW 11.5 mph 6.3 mph 68% 0 in 401.00 W/m2
11:44 37.6 °F 28.7 °F 30.22 in NNE 6 mph 3.6 mph 70% 0 in 403.00 W/m2
11:49 37.9 °F 29 °F 30.22 in North 8.1 mph 3.4 mph 70% 0 in 431.00 W/m2
11:54 38.3 °F 29 °F 30.22 in North 4.6 mph 2.4 mph 69% 0 in 332.00 W/m2
11:59 38.4 °F 28.4 °F 30.21 in North 5.8 mph 2.7 mph 67% 0 in 432.00 W/m2
12:04 38.7 °F 29 °F 30.21 in North 2.3 mph 0.5 mph 68% 0 in 439.00 W/m2
12:09 38.9 °F 28.9 °F 30.21 in NNW 6.9 mph 4.9 mph 67% 0 in 438.00 W/m2
12:14 38.8 °F 28.4 °F 30.21 in NNW 4.6 mph 1.2 mph 66% 0 in 436.00 W/m2
12:19 38.9 °F 28.9 °F 30.21 in NNW 5.8 mph 2.7 mph 67% 0 in 432.00 W/m2
12:24 38.9 °F 28.1 °F 30.21 in North 3.5 mph 2.7 mph 65% 0 in 431.00 W/m2
12:29 38.8 °F 28.8 °F 30.21 in North 5.8 mph 4 mph 67% 0 in 427.00 W/m2
12:34 38.8 °F 28.4 °F 30.21 in WNW 3.5 mph 3.2 mph 66% 0 in 424.00 W/m2
12:39 38.9 °F 28.5 °F 30.21 in WNW 5.8 mph 4.2 mph 66% 0 in 418.00 W/m2
12:44 39.2 °F 28.4 °F 30.21 in North 3.5 mph 2.5 mph 65% 0 in 417.00 W/m2
12:49 39.3 °F 28.5 °F 30.21 in NW 4.6 mph 3.1 mph 65% 0 in 411.00 W/m2
12:54 39.3 °F 28.5 °F 30.21 in NNW 3.5 mph 2 mph 65% 0 in 406.00 W/m2
12:59 39.5 °F 28.7 °F 30.20 in WNW 4.6 mph 3.4 mph 65% 0 in 403.00 W/m2
13:04 39.7 °F 28.9 °F 30.20 in NNE 4.6 mph 4.2 mph 65% 0 in 399.00 W/m2
13:09 39.8 °F 29.4 °F 30.20 in NNW 5.8 mph 3.8 mph 66% 0 in 390.00 W/m2
13:14 39.7 °F 28.9 °F 30.20 in NNW 3.5 mph 0.5 mph 65% 0 in 383.00 W/m2
13:19 39.9 °F 29.5 °F 30.20 in NW 5.8 mph 3 mph 66% 0 in 376.00 W/m2
13:24 39.9 °F 29.1 °F 30.21 in North 5.8 mph 3 mph 65% 0 in 371.00 W/m2
13:29 40 °F 29.6 °F 30.21 in North 4.6 mph 3.2 mph 66% 0 in 364.00 W/m2
13:34 40.1 °F 29.3 °F 30.21 in NW 3.5 mph 3.6 mph 65% 0 in 355.00 W/m2
13:39 40.1 °F 28.9 °F 30.21 in WNW 4 mph 3 mph 64% 0 in 348.00 W/m2
13:44 40.2 °F 29 °F 30.21 in NW 4.6 mph 1.7 mph 64% 0 in 343.00 W/m2
13:49 40.2 °F 29.4 °F 30.21 in NNW 2.3 mph 0.7 mph 65% 0 in 332.00 W/m2
13:54 40.4 °F 29.6 °F 30.21 in NNW 4.6 mph 3.7 mph 65% 0 in 322.00 W/m2
13:59 40.4 °F 29.2 °F 30.21 in NNW 5.8 mph 2.3 mph 64% 0 in 313.00 W/m2
14:04 40.2 °F 29 °F 30.21 in NW 3.5 mph 1.3 mph 64% 0 in 306.00 W/m2
14:09 40.3 °F 29.1 °F 30.21 in NW 1.2 mph 0.4 mph 64% 0 in 295.00 W/m2
14:14 40.5 °F 28.9 °F 30.21 in WNW 5.8 mph 3.6 mph 63% 0 in 285.00 W/m2
14:19 40.5 °F 29.3 °F 30.21 in WNW 3.5 mph 2.5 mph 64% 0 in 276.00 W/m2
14:24 40.7 °F 29.5 °F 30.22 in West 3.5 mph 1.7 mph 64% 0 in 262.00 W/m2
14:29 40.9 °F 29.7 °F 30.22 in NW 2.3 mph 0.8 mph 64% 0 in 248.00 W/m2
14:34 41 °F 29.4 °F 30.23 in NW 4.6 mph 1.8 mph 63% 0 in 237.00 W/m2
14:39 40.9 °F 28.9 °F 30.23 in NW 4.6 mph 3.3 mph 62% 0 in 221.00 W/m2
14:44 40.6 °F 29 °F 30.22 in NW 4.6 mph 3.2 mph 63% 0 in 211.00 W/m2
14:49 40.4 °F 28.8 °F 30.23 in NW 3.5 mph 2.1 mph 63% 0 in 197.00 W/m2
14:54 40.5 °F 28.9 °F 30.23 in WSW 5.8 mph 2.1 mph 63% 0 in 181.00 W/m2
14:59 40.5 °F 28.9 °F 30.23 in NW 3.5 mph 2.2 mph 63% 0 in 165.00 W/m2
15:04 40.5 °F 28.9 °F 30.23 in NNW 1.2 mph 0.5 mph 63% 0 in 148.00 W/m2
15:09 40.5 °F 28.5 °F 30.23 in NW 4.6 mph 3 mph 62% 0 in 134.00 W/m2
15:14 40.3 °F 28.3 °F 30.23 in NW 3.5 mph 3.2 mph 62% 0 in 121.00 W/m2
15:19 40.3 °F 28.3 °F 30.23 in NW 3.5 mph 1.9 mph 62% 0 in 107.00 W/m2
15:24 40.2 °F 28.2 °F 30.23 in NW 4.6 mph 2.4 mph 62% 0 in 93.00 W/m2
15:29 39.9 °F 27.9 °F 30.24 in NW 2.3 mph 2.2 mph 62% 0 in 35.00 W/m2
15:34 39.7 °F 28.1 °F 30.24 in Calm     63% 0 in 19.00 W/m2
15:39 39.5 °F 27.9 °F 30.24 in NW 3.5 mph 1.5 mph 63% 0 in 19.00 W/m2
15:44 39.4 °F 27.8 °F 30.24 in NW 3.5 mph 0.7 mph 63% 0 in 18.00 W/m2
15:49 39.2 °F 28 °F 30.24 in NW 2.3 mph 0.2 mph 64% 0 in 16.00 W/m2
15:54 39.1 °F 28.3 °F 30.24 in NW 4.6 mph 1.8 mph 65% 0 in 14.00 W/m2
15:59 39 °F 28.6 °F 30.25 in North 5 mph 1.5 mph 66% 0 in 12.00 W/m2
16:04 38.8 °F 28.4 °F 30.25 in WNW 3.5 mph 0.2 mph 66% 0 in 11.00 W/m2
16:09 38.7 °F 28.7 °F 30.25 in North 3.5 mph 1.1 mph 67% 0 in 9.00 W/m2
16:14 38.4 °F 28.8 °F 30.25 in NW 3.5 mph 1.3 mph 68% 0 in 7.00 W/m2
16:19 38.2 °F 28.9 °F 30.25 in North 4 mph 1.5 mph 69% 0 in 5.00 W/m2
16:24 37.9 °F 29 °F 30.25 in North 3.5 mph 1.6 mph 70% 0 in 0.00 W/m2
16:29 37.6 °F 29 °F 30.25 in North 3.5 mph   71% 0 in 0.00 W/m2
16:34 37.3 °F 29.1 °F 30.25 in NW 2.3 mph 0.7 mph 72% 0 in 0.00 W/m2
16:39 36.9 °F 28.7 °F 30.25 in WNW 3.5 mph 0.4 mph 72% 0 in 0.00 W/m2
16:44 36.6 °F 28.8 °F 30.25 in NW 3.5 mph 1.8 mph 73% 0 in 0.00 W/m2
16:49 36.5 °F 28.7 °F 30.25 in North 4.6 mph 1.8 mph 73% 0 in 0.00 W/m2
16:54 36.3 °F 28.8 °F 30.25 in NW 3.5 mph 1.1 mph 74% 0 in 0.00 W/m2
16:59 36.1 °F 28.6 °F 30.25 in NW 3.5 mph 2.1 mph 74% 0 in 0.00 W/m2
17:04 35.9 °F 28.7 °F 30.25 in NNW 3.5 mph 1.9 mph 75% 0 in 0.00 W/m2
17:09 35.8 °F 28.6 °F 30.25 in WNW 2.3 mph 0.5 mph 75% 0 in 0.00 W/m2
17:14 35.7 °F 28.6 °F 30.25 in WNW 2.3 mph   75% 0 in 0.00 W/m2
17:19 35.6 °F 28.5 °F 30.25 in WNW 3.5 mph 1.2 mph 75% 0 in 0.00 W/m2
17:24 35.6 °F 28.5 °F 30.25 in WNW 3.5 mph 1 mph 75% 0 in 0.00 W/m2
17:29 35.6 °F 28.5 °F 30.25 in WNW 3.5 mph 1.9 mph 75% 0 in 0.00 W/m2
17:34 35.5 °F 28.4 °F 30.25 in NW 3.5 mph 1.8 mph 75% 0 in 0.00 W/m2
17:39 35.5 °F 28.4 °F 30.25 in NW 2.3 mph 1.4 mph 75% 0 in 0.00 W/m2
17:44 35.4 °F 28.3 °F 30.25 in NW 3.5 mph 1.1 mph 75% 0 in 0.00 W/m2
17:49 35.3 °F 28.2 °F 30.26 in NW 2.3 mph 1 mph 75% 0 in 0.00 W/m2
17:54 35.2 °F 28.4 °F 30.26 in NW 3.5 mph 1.5 mph 76% 0 in 0.00 W/m2
17:59 35.2 °F 28.4 °F 30.25 in North 3.5 mph 2.4 mph 76% 0 in 0.00 W/m2
18:04 35.2 °F 28.1 °F 30.26 in North 3.5 mph 2.6 mph 75% 0 in 0.00 W/m2
18:09 35.3 °F 27.8 °F 30.26 in NW 4 mph 2.5 mph 74% 0 in 0.00 W/m2
18:14 35.4 °F 27.9 °F 30.26 in NW 4 mph 2 mph 74% 0 in 0.00 W/m2
18:19 35.3 °F 27.8 °F 30.26 in NW 3.5 mph 1.1 mph 74% 0 in 0.00 W/m2
18:24 35.3 °F 27.5 °F 30.26 in NW 2.3 mph 0.6 mph 73% 0 in 0.00 W/m2
18:29 35.2 °F 27.4 °F 30.26 in WNW 1.2 mph 0.2 mph 73% 0 in 0.00 W/m2
18:34 35 °F 27.2 °F 30.25 in NW 3.5 mph 0.5 mph 73% 0 in 0.00 W/m2
18:39 34.9 °F 27.5 °F 30.26 in NW 3.5 mph 0.9 mph 74% 0 in 0.00 W/m2
18:44 34.8 °F 27.4 °F 30.26 in Calm     74% 0 in 0.00 W/m2
18:49 34.6 °F 27.2 °F 30.26 in NW 2.3 mph 0.1 mph 74% 0 in 0.00 W/m2
18:54 34.4 °F 27 °F 30.27 in NW 2.3 mph 0.3 mph 74% 0 in 0.00 W/m2
18:59 34.2 °F 27.1 °F 30.26 in NW 2.3 mph   75% 0 in 0.00 W/m2
19:04 34.1 °F 27.3 °F 30.27 in NW 1.2 mph   76% 0 in 0.00 W/m2
19:09 33.9 °F 27.1 °F 30.27 in NW 1.2 mph   76% 0 in 0.00 W/m2
19:14 33.8 °F 27 °F 30.27 in NW 2.3 mph 0.6 mph 76% 0 in 0.00 W/m2
19:19 33.7 °F 26.9 °F 30.27 in Calm   0.1 mph 76% 0 in 0.00 W/m2
19:24 33.6 °F 27.2 °F 30.27 in NW 1.2 mph   77% 0 in 0.00 W/m2
19:29 33.5 °F 27.1 °F 30.26 in NW 2 mph 0.5 mph 77% 0 in 0.00 W/m2
19:34 33.5 °F 27.4 °F 30.27 in NW 2.3 mph 0.8 mph 78% 0 in 0.00 W/m2
19:39 33.4 °F 27.3 °F 30.27 in NW 1.2 mph 0.3 mph 78% 0 in 0.00 W/m2
19:44 33.3 °F 27.2 °F 30.26 in WNW 2.3 mph 0.3 mph 78% 0 in 0.00 W/m2
19:49 33.3 °F 27.2 °F 30.26 in WNW 3.5 mph 1 mph 78% 0 in 0.00 W/m2
19:54 33.2 °F 27.1 °F 30.26 in WNW 2.3 mph   78% 0 in 0.00 W/m2
19:59 33.2 °F 27.1 °F 30.26 in WNW 1.2 mph   78% 0 in 0.00 W/m2
20:04 33.1 °F 27 °F 30.26 in WNW 3.5 mph 0.2 mph 78% 0 in 0.00 W/m2
20:09 33.1 °F 27 °F 30.26 in NW 2.3 mph 1.2 mph 78% 0 in 0.00 W/m2
20:14 33 °F 27.2 °F 30.26 in NNW 1.2 mph 0.1 mph 79% 0 in 0.00 W/m2
20:19 32.8 °F 27 °F 30.26 in NNW 2.3 mph 1 mph 79% 0 in 0.00 W/m2
20:24 32.4 °F 26.6 °F 30.26 in Calm     79% 0 in 0.00 W/m2
20:29 31.8 °F 26.3 °F 30.26 in Calm     80% 0 in 0.00 W/m2
20:34 31.2 °F 26 °F 30.26 in NNW 1.2 mph 0.2 mph 81% 0 in 0.00 W/m2
20:39 30.7 °F 26.1 °F 30.26 in NNW 2 mph 0.8 mph 83% 0 in 0.00 W/m2
20:44 30.5 °F 26.2 °F 30.26 in NNW 2.3 mph 0.3 mph 84% 0 in 0.00 W/m2
20:49 30.5 °F 26.5 °F 30.26 in NNW 1 mph 0.3 mph 85% 0 in 0.00 W/m2
20:54 30.5 °F 26.5 °F 30.26 in NNW 2.3 mph 0.3 mph 85% 0 in 0.00 W/m2
20:59 30.6 °F 26.6 °F 30.26 in Calm   0.1 mph 85% 0 in 0.00 W/m2
21:04 30.7 °F 26.7 °F 30.26 in Calm     85% 0 in 0.00 W/m2
21:09 30.8 °F 26.8 °F 30.26 in Calm     85% 0 in 0.00 W/m2
21:14 30.8 °F 26.5 °F 30.26 in Calm     84% 0 in 0.00 W/m2
21:19 30.5 °F 26 °F 30.26 in Calm     83% 0 in 0.00 W/m2
21:24 30.3 °F 26 °F 30.26 in Calm     84% 0 in 0.00 W/m2
21:29 30.1 °F 25.8 °F 30.26 in Calm     84% 0 in 0.00 W/m2
21:34 29.9 °F 25.9 °F 30.25 in Calm     85% 0 in 0.00 W/m2
21:39 29.7 °F 25.7 °F 30.26 in Calm     85% 0 in 0.00 W/m2
21:44 29.5 °F 25.8 °F 30.25 in Calm     86% 0 in 0.00 W/m2
21:49 29.3 °F 25.6 °F 30.25 in Calm     86% 0 in 0.00 W/m2
21:54 29.1 °F 25.4 °F 30.25 in Calm     86% 0 in 0.00 W/m2
21:59 29 °F 25.6 °F 30.25 in Calm     87% 0 in 0.00 W/m2
22:04 29.3 °F 26.2 °F 30.25 in Calm     88% 0 in 0.00 W/m2
22:09 29.4 °F 26 °F 30.25 in Calm     87% 0 in 0.00 W/m2
22:14 29.3 °F 25.9 °F 30.25 in Calm     87% 0 in 0.00 W/m2
22:19 29.2 °F 25.8 °F 30.25 in Calm     87% 0 in 0.00 W/m2
22:24 29.2 °F 25.5 °F 30.25 in Calm     86% 0 in 0.00 W/m2
22:29 28.8 °F 24.9 °F 30.25 in Calm     85% 0 in 0.00 W/m2
22:34 28.3 °F 24.1 °F 30.25 in Calm     84% 0 in 0.00 W/m2
22:39 27.9 °F 24 °F 30.25 in Calm     85% 0 in 0.00 W/m2
22:44 28 °F 24.4 °F 30.25 in Calm     86% 0 in 0.00 W/m2
22:49 28 °F 24.6 °F 30.25 in Calm     87% 0 in 0.00 W/m2
22:54 27.9 °F 24.5 °F 30.25 in Calm     87% 0 in 0.00 W/m2
22:59 27.8 °F 24.4 °F 30.25 in Calm     87% 0 in 0.00 W/m2
23:04 27.7 °F 24.3 °F 30.25 in Calm     87% 0 in 0.00 W/m2
23:09 27.6 °F 24.2 °F 30.25 in Calm     87% 0 in 0.00 W/m2
23:14 27.6 °F 24.2 °F 30.25 in Calm     87% 0 in 0.00 W/m2
23:19 27.5 °F 24.1 °F 30.25 in Calm     87% 0 in 0.00 W/m2
23:24 27.4 °F 23.8 °F 30.25 in Calm     86% 0 in 0.00 W/m2
23:29 27.4 °F 24.3 °F 30.25 in Calm     88% 0 in 0.00 W/m2
23:34 27.8 °F 24.7 °F 30.25 in Calm     88% 0 in 0.00 W/m2
23:39 27.9 °F 24.8 °F 30.24 in Calm     88% 0 in 0.00 W/m2
23:44 27.9 °F 24.8 °F 30.24 in Calm     88% 0 in 0.00 W/m2
23:49 27.9 °F 24.8 °F 30.24 in Calm     88% 0 in 0.00 W/m2
23:54 27.8 °F 24.7 °F 30.24 in Calm     88% 0 in 0.00 W/m2
23:59 27.7 °F 24.6 °F 30.24 in Calm     88% 0 in 0.00 W/m2
Bourbonnais, Illinois, USA
Compliments of Weather Underground - 4 mb